ADDS TAF Data INFO
IDs: Format: Raw Decoded Include METARs

Data at: 0154 UTC 18 Oct 2017

TAF for:EGPH (Edinburgh Arpt, --, UK) issued at 2254 UTC 17 Oct 2017
Text:TAF EGPH 172254Z 1800/1824 06008KT 9999 BKN020
Forecast period:0000 UTC 18 October 2017 to 0000 UTC 19 October 2017
Forecast type:FROM: standard forecast or significant change
Winds:from the ENE (60 degrees) at 9 MPH (8 knots; 4.1 m/s)
Visibility:6 or more sm (10+ km)
Ceiling:2000 feet AGL
Clouds: broken clouds at 2000 feet AGL
Text:TEMPO 1800/1815 4000 -RADZ BKN010
Forecast period:0000 to 1500 UTC 18 October 2017
Forecast type:TEMPORARY: The following changes expected for less than half the time period
Visibility: 2.49 sm ( 4.01 km)
Ceiling:1000 feet AGL
Clouds: broken clouds at 1000 feet AGL
Weather:-RA -DZ (light rain, light drizzle)
Text:TEMPO 1823/1824 4000 -RADZ BKN010
Forecast period:2300 UTC 18 October 2017 to 0000 UTC 19 October 2017
Forecast type:TEMPORARY: The following changes expected for less than half the time period
Visibility: 2.49 sm ( 4.01 km)
Ceiling:1000 feet AGL
Clouds: broken clouds at 1000 feet AGL
Weather:-RA -DZ (light rain, light drizzle)